createdAt,value
2019-04-01T00:01:27.240Z,5.90
2019-04-01T00:04:32.400Z,5.83
2019-04-01T00:07:37.916Z,5.73
2019-04-01T00:10:43.029Z,5.73
2019-04-01T00:13:50.011Z,5.71
2019-04-01T00:16:55.122Z,5.73
2019-04-01T00:20:00.370Z,5.58
2019-04-01T00:23:05.605Z,5.66
2019-04-01T00:26:10.983Z,5.63
2019-04-01T00:29:16.136Z,5.60
2019-04-01T00:32:21.322Z,5.60
2019-04-01T00:35:26.396Z,5.96
2019-04-01T00:38:31.499Z,6.11
2019-04-01T00:41:44.454Z,5.87
2019-04-01T00:44:49.694Z,5.84
2019-04-01T00:47:54.988Z,5.84
2019-04-01T00:51:00.072Z,5.58
2019-04-01T00:54:05.300Z,5.50
2019-04-01T00:57:10.776Z,5.33
2019-04-01T01:00:17.965Z,5.44
2019-04-01T01:03:23.130Z,5.74
2019-04-01T01:06:28.303Z,5.97
2019-04-01T01:09:33.433Z,5.93
2019-04-01T01:12:38.679Z,5.97
2019-04-01T01:15:43.968Z,6.07
2019-04-01T01:18:49.107Z,5.79
2019-04-01T01:21:54.282Z,5.71
2019-04-01T01:24:59.498Z,5.57
2019-04-01T01:28:04.692Z,5.55
2019-04-01T01:31:09.913Z,5.62
2019-04-01T01:34:15.094Z,5.57
2019-04-01T01:37:20.223Z,5.62
2019-04-01T01:40:25.465Z,5.52
2019-04-01T01:43:30.699Z,5.52
2019-04-01T01:46:37.060Z,5.38
2019-04-01T01:49:42.741Z,5.33
2019-04-01T01:52:48.007Z,5.15
2019-04-01T01:55:54.219Z,5.05
2019-04-01T01:58:59.329Z,5.36
2019-04-01T02:02:04.764Z,5.25
2019-04-01T02:05:10.026Z,4.97
2019-04-01T02:08:15.249Z,4.89
2019-04-01T02:11:20.365Z,5.05
2019-04-01T02:14:25.680Z,4.86
2019-04-01T02:17:30.842Z,4.83
2019-04-01T02:20:36.130Z,4.96
2019-04-01T02:23:41.273Z,4.71
2019-04-01T02:26:46.478Z,4.72
2019-04-01T02:29:51.679Z,4.48
2019-04-01T02:32:56.939Z,4.35
2019-04-01T02:36:02.128Z,4.31
2019-04-01T02:39:09.407Z,4.19
2019-04-01T02:42:14.589Z,4.27
2019-04-01T02:45:19.914Z,4.19
2019-04-01T02:48:25.145Z,4.11
2019-04-01T02:51:30.310Z,4.14
2019-04-01T02:54:35.519Z,4.21
2019-04-01T02:57:40.695Z,4.32
2019-04-01T03:00:45.961Z,4.15
2019-04-01T03:03:51.173Z,4.08
2019-04-01T03:06:56.287Z,4.00
2019-04-01T03:10:01.394Z,4.23
2019-04-01T03:13:06.615Z,4.24
2019-04-01T03:16:11.960Z,4.00
2019-04-01T03:19:17.145Z,4.00
2019-04-01T03:22:22.264Z,3.99
2019-04-01T03:25:27.389Z,4.08
2019-04-01T03:28:32.618Z,4.32
2019-04-01T03:31:37.951Z,4.27
2019-04-01T03:34:43.133Z,4.15
2019-04-01T03:37:48.359Z,4.24
2019-04-01T03:40:53.557Z,4.25
2019-04-01T03:43:58.716Z,4.33
2019-04-01T03:47:03.874Z,4.15
2019-04-01T03:50:09.232Z,4.31
2019-04-01T03:53:14.315Z,4.17
2019-04-01T03:56:19.429Z,4.14
2019-04-01T03:59:24.628Z,4.12
2019-04-01T04:02:29.891Z,4.02
2019-04-01T04:05:35.187Z,3.91
2019-04-01T04:08:41.399Z,3.83
2019-04-01T04:11:46.601Z,3.97
2019-04-01T04:14:51.986Z,3.92
2019-04-01T04:17:57.142Z,3.74
2019-04-01T04:21:02.302Z,3.85
2019-04-01T04:24:07.444Z,3.76
2019-04-01T04:27:12.591Z,3.73
2019-04-01T04:30:20.225Z,3.72
2019-04-01T04:33:25.378Z,3.93
2019-04-01T04:36:30.574Z,3.88
2019-04-01T04:39:35.780Z,4.00
2019-04-01T04:42:40.932Z,3.89
2019-04-01T04:45:46.128Z,3.72
2019-04-01T04:48:51.274Z,3.54
2019-04-01T04:51:56.362Z,3.50
2019-04-01T04:55:01.606Z,3.51
2019-04-01T04:58:06.757Z,3.59
2019-04-01T05:01:11.947Z,3.47
2019-04-01T05:04:17.135Z,3.26
2019-04-01T05:07:22.255Z,3.45
2019-04-01T05:10:27.441Z,3.45
2019-04-01T05:13:32.538Z,3.37
2019-04-01T05:16:37.705Z,3.40
2019-04-01T05:19:42.897Z,3.37
2019-04-01T05:22:48.377Z,3.48
2019-04-01T05:25:54.638Z,3.58
2019-04-01T05:29:00.466Z,3.83
2019-04-01T05:32:06.172Z,4.08
2019-04-01T05:35:11.286Z,4.33
2019-04-01T05:38:16.934Z,4.61
2019-04-01T05:41:22.153Z,4.69
2019-04-01T05:44:27.534Z,4.94
2019-04-01T05:47:37.494Z,5.08
2019-04-01T05:50:43.621Z,5.21
2019-04-01T05:53:48.811Z,5.62
2019-04-01T05:56:53.986Z,5.74
2019-04-01T05:59:59.203Z,5.85
2019-04-01T06:03:04.497Z,5.94
2019-04-01T06:06:09.670Z,6.21
2019-04-01T06:09:14.820Z,6.40
2019-04-01T06:12:20.224Z,6.39
2019-04-01T06:15:25.629Z,6.58
2019-04-01T06:18:30.775Z,6.55
2019-04-01T06:21:36.311Z,6.95
2019-04-01T06:24:41.819Z,6.89
2019-04-01T06:27:47.003Z,7.01
2019-04-01T06:30:52.251Z,7.14
2019-04-01T06:33:57.408Z,7.36
2019-04-01T06:37:02.514Z,7.66
2019-04-01T06:40:07.652Z,7.79
2019-04-01T06:43:13.933Z,7.98
2019-04-01T06:46:19.176Z,8.01
2019-04-01T06:49:24.365Z,8.16
2019-04-01T06:52:29.441Z,7.95
2019-04-01T06:55:34.616Z,8.00
2019-04-01T06:58:39.883Z,8.73
2019-04-01T07:01:45.016Z,9.04
2019-04-01T07:04:50.374Z,9.30
2019-04-01T07:07:55.541Z,9.32
2019-04-01T07:11:00.625Z,9.23
2019-04-01T07:14:06.046Z,9.21
2019-04-01T07:17:11.241Z,9.26
2019-04-01T07:20:16.426Z,8.97
2019-04-01T07:23:21.538Z,9.22
2019-04-01T07:26:26.701Z,9.55
2019-04-01T07:29:31.895Z,9.95
2019-04-01T07:32:37.083Z,9.81
2019-04-01T07:35:42.312Z,10.20
2019-04-01T07:38:47.575Z,10.47
2019-04-01T07:41:52.664Z,10.55
2019-04-01T07:44:58.096Z,10.01
2019-04-01T07:48:03.293Z,10.26
2019-04-01T07:51:09.310Z,10.12
2019-04-01T07:54:14.495Z,10.25
2019-04-01T07:57:19.653Z,10.50
2019-04-01T08:00:24.873Z,10.11
2019-04-01T08:03:30.137Z,10.51
2019-04-01T08:06:35.362Z,10.99
2019-04-01T08:09:40.766Z,11.15
2019-04-01T08:12:46.500Z,10.93
2019-04-01T08:15:51.717Z,11.14
2019-04-01T08:18:56.905Z,10.89
2019-04-01T08:22:02.163Z,10.75
2019-04-01T08:25:07.339Z,10.72
2019-04-01T08:28:12.556Z,10.59
2019-04-01T08:31:18.022Z,10.99
2019-04-01T08:34:23.279Z,10.82
2019-04-01T08:37:28.448Z,10.99
2019-04-01T08:40:33.623Z,11.49
2019-04-01T08:43:38.737Z,11.61
2019-04-01T08:46:43.833Z,11.38
2019-04-01T08:49:49.046Z,11.06
2019-04-01T08:52:54.365Z,11.29
2019-04-01T08:56:00.899Z,11.43
2019-04-01T08:59:07.404Z,11.75
2019-04-01T09:02:18.038Z,11.75
2019-04-01T09:05:19.476Z,12.08
2019-04-01T09:08:26.474Z,12.03
2019-04-01T09:11:31.702Z,11.91
2019-04-01T09:14:37.547Z,12.58
2019-04-01T09:17:42.708Z,12.41
2019-04-01T09:20:47.815Z,12.37
2019-04-01T09:23:52.997Z,12.20
2019-04-01T09:26:58.294Z,12.10
2019-04-01T09:30:03.467Z,12.46
2019-04-01T09:33:08.856Z,12.59
2019-04-01T09:36:13.980Z,12.79
2019-04-01T09:39:19.232Z,13.41
2019-04-01T09:42:24.466Z,12.93
2019-04-01T09:45:29.632Z,12.64
2019-04-01T09:48:34.746Z,12.56
2019-04-01T09:51:48.401Z,13.08
2019-04-01T09:54:46.858Z,13.25
2019-04-01T09:57:52.056Z,13.39
2019-04-01T10:00:57.148Z,13.44
2019-04-01T10:04:02.352Z,13.71
2019-04-01T10:07:07.458Z,13.45
2019-04-01T10:10:12.900Z,13.91
2019-04-01T10:13:18.011Z,14.13
2019-04-01T10:16:26.401Z,13.92
2019-04-01T10:19:29.983Z,14.03
2019-04-01T10:22:35.185Z,13.76
2019-04-01T10:25:40.349Z,13.74
2019-04-01T10:28:45.546Z,14.02
2019-04-01T10:31:50.645Z,14.17
2019-04-01T10:34:55.758Z,14.90
2019-04-01T10:38:01.006Z,14.93
2019-04-01T10:41:07.210Z,14.72
2019-04-01T10:44:12.323Z,14.90
2019-04-01T10:47:17.645Z,14.69
2019-04-01T10:50:23.047Z,15.05
2019-04-01T10:53:28.245Z,14.85
2019-04-01T10:56:35.841Z,14.82
2019-04-01T10:59:40.559Z,15.00
2019-04-01T11:02:45.846Z,15.08
2019-04-01T11:05:51.446Z,15.38
2019-04-01T11:08:56.646Z,15.21
2019-04-01T11:12:01.813Z,15.39
2019-04-01T11:15:07.399Z,15.04
2019-04-01T11:18:12.681Z,15.38
2019-04-01T11:21:17.877Z,16.10
2019-04-01T11:24:23.116Z,15.81
2019-04-01T11:27:28.340Z,15.41
2019-04-01T11:30:36.815Z,15.33
2019-04-01T11:33:40.560Z,15.42
2019-04-01T11:36:45.693Z,15.48
2019-04-01T11:39:51.004Z,15.48
2019-04-01T11:42:56.438Z,16.12
2019-04-01T11:46:01.813Z,15.73
2019-04-01T11:49:07.124Z,15.82
2019-04-01T11:52:15.398Z,16.07
2019-04-01T11:55:19.539Z,16.05
2019-04-01T11:58:24.763Z,16.32
2019-04-01T12:01:29.861Z,16.08
2019-04-01T12:04:35.041Z,16.41
2019-04-01T12:07:40.218Z,15.95
2019-04-01T12:10:45.516Z,16.16
2019-04-01T12:13:50.757Z,16.28
2019-04-01T12:16:55.931Z,16.17
2019-04-01T12:20:01.138Z,16.08
2019-04-01T12:23:06.567Z,16.60
2019-04-01T12:26:15.232Z,16.86
2019-04-01T12:29:18.681Z,16.46
2019-04-01T12:32:23.784Z,16.62
2019-04-01T12:35:29.055Z,17.24
2019-04-01T12:38:34.207Z,16.99
2019-04-01T12:41:39.432Z,17.40
2019-04-01T12:44:44.704Z,17.18
2019-04-01T12:47:49.882Z,17.31
2019-04-01T12:50:55.073Z,16.96
2019-04-01T12:54:00.232Z,17.00
2019-04-01T12:57:05.452Z,17.07
2019-04-01T13:00:12.380Z,17.24
2019-04-01T13:03:17.907Z,17.26
2019-04-01T13:06:23.848Z,16.75
2019-04-01T13:09:29.017Z,16.71
2019-04-01T13:12:34.362Z,16.86
2019-04-01T13:15:39.609Z,16.88
2019-04-01T13:18:44.744Z,17.03
2019-04-01T13:21:49.932Z,17.16
2019-04-01T13:24:55.026Z,17.16
2019-04-01T13:28:00.615Z,17.36
2019-04-01T13:31:05.787Z,17.13
2019-04-01T13:34:10.914Z,17.00
2019-04-01T13:37:16.041Z,17.20
2019-04-01T13:40:21.320Z,17.20
2019-04-01T13:43:26.626Z,17.24
2019-04-01T13:46:31.823Z,17.28
2019-04-01T13:49:37.138Z,17.24
2019-04-01T13:52:42.234Z,17.21
2019-04-01T13:55:47.466Z,17.19
2019-04-01T13:58:52.720Z,17.44
2019-04-01T14:01:57.868Z,17.50
2019-04-01T14:05:05.905Z,17.59
2019-04-01T14:08:09.790Z,17.81
2019-04-01T14:11:14.984Z,17.20
2019-04-01T14:14:20.197Z,17.39
2019-04-01T14:17:25.483Z,17.29
2019-04-01T14:20:30.681Z,17.39
2019-04-01T14:23:35.838Z,17.47
2019-04-01T14:26:41.116Z,17.79
2019-04-01T14:29:46.563Z,18.20
2019-04-01T14:32:51.803Z,18.03
2019-04-01T14:35:57.079Z,17.86
2019-04-01T14:39:02.340Z,17.75
2019-04-01T14:42:09.193Z,17.67
2019-04-01T14:45:14.690Z,17.83
2019-04-01T14:48:19.841Z,17.49
2019-04-01T14:51:26.074Z,17.52
2019-04-01T14:54:31.363Z,17.42
2019-04-01T14:57:36.626Z,17.52
2019-04-01T15:00:41.800Z,17.64
2019-04-01T15:03:47.039Z,17.75
2019-04-01T15:06:52.307Z,17.55
2019-04-01T15:09:58.389Z,17.58
2019-04-01T15:13:05.657Z,17.49
2019-04-01T15:16:10.658Z,17.61
2019-04-01T15:19:15.851Z,17.43
2019-04-01T15:22:27.148Z,17.32
2019-04-01T15:25:31.787Z,17.17
2019-04-01T15:28:37.329Z,17.35
2019-04-01T15:31:42.582Z,17.34
2019-04-01T15:34:48.059Z,17.16
2019-04-01T15:37:53.229Z,17.08
2019-04-01T15:40:58.485Z,17.13
2019-04-01T15:44:04.807Z,17.14
2019-04-01T15:47:10.077Z,17.07
2019-04-01T15:50:27.880Z,16.91
2019-04-01T15:53:23.605Z,16.76
2019-04-01T15:56:29.270Z,16.85
2019-04-01T15:59:34.850Z,16.88
2019-04-01T16:02:40.390Z,16.83
2019-04-01T16:05:45.653Z,16.84
2019-04-01T16:08:50.966Z,16.79
2019-04-01T16:11:56.110Z,16.74
2019-04-01T16:15:01.572Z,16.59
2019-04-01T16:18:06.921Z,16.57
2019-04-01T16:21:12.116Z,16.45
2019-04-01T16:24:17.247Z,16.41
2019-04-01T16:27:22.519Z,16.31
2019-04-01T16:30:28.091Z,16.25
2019-04-01T16:33:33.596Z,16.18
2019-04-01T16:36:38.854Z,16.23
2019-04-01T16:39:44.038Z,16.06
2019-04-01T16:42:49.132Z,15.91
2019-04-01T16:45:56.021Z,16.02
2019-04-01T16:49:01.294Z,15.97
2019-04-01T16:52:08.707Z,15.73
2019-04-01T16:55:14.301Z,15.72
2019-04-01T16:58:19.467Z,15.73
2019-04-01T17:01:24.772Z,15.56
2019-04-01T17:04:30.053Z,15.52
2019-04-01T17:07:35.180Z,15.49
2019-04-01T17:10:40.288Z,15.34
2019-04-01T17:13:45.701Z,15.32
2019-04-01T17:16:50.971Z,15.12
2019-04-01T17:19:56.062Z,15.14
2019-04-01T17:23:01.450Z,14.99
2019-04-01T17:26:06.735Z,14.88
2019-04-01T17:29:12.044Z,14.79
2019-04-01T17:32:17.217Z,14.84
2019-04-01T17:35:22.358Z,14.74
2019-04-01T17:38:27.648Z,14.55
2019-04-01T17:41:33.140Z,14.18
2019-04-01T17:44:38.335Z,13.80
2019-04-01T17:47:43.646Z,13.67
2019-04-01T17:50:49.026Z,13.29
2019-04-01T17:53:54.205Z,13.20
2019-04-01T17:56:59.367Z,12.80
2019-04-01T18:00:08.796Z,12.52
2019-04-01T18:03:14.399Z,12.25
2019-04-01T18:06:19.594Z,12.21
2019-04-01T18:09:24.882Z,12.26
2019-04-01T18:12:30.119Z,12.02
2019-04-01T18:15:35.291Z,12.20
2019-04-01T18:18:40.887Z,11.90
2019-04-01T18:21:46.089Z,11.64
2019-04-01T18:24:52.077Z,11.34
2019-04-01T18:27:57.242Z,11.32
2019-04-01T18:31:03.977Z,11.19
2019-04-01T18:34:09.265Z,11.10
2019-04-01T18:37:14.385Z,11.10
2019-04-01T18:40:31.907Z,10.92
2019-04-01T18:43:28.239Z,10.85
2019-04-01T18:46:33.718Z,10.58
2019-04-01T18:49:38.956Z,10.51
2019-04-01T18:52:44.093Z,10.42
2019-04-01T18:55:52.596Z,10.06
2019-04-01T18:58:56.135Z,9.97
2019-04-01T19:02:01.357Z,9.75
2019-04-01T19:05:06.934Z,9.90
2019-04-01T19:08:12.168Z,9.84
2019-04-01T19:11:17.352Z,9.91
2019-04-01T19:14:23.577Z,9.60
2019-04-01T19:17:28.797Z,9.55
2019-04-01T19:20:34.050Z,9.38
2019-04-01T19:23:39.231Z,9.42
2019-04-01T19:26:44.456Z,9.43
2019-04-01T19:29:49.756Z,9.28
2019-04-01T19:32:55.026Z,9.36
2019-04-01T19:36:01.250Z,9.23
2019-04-01T19:39:07.698Z,9.16
2019-04-01T19:42:13.193Z,9.14
2019-04-01T19:45:18.347Z,9.16
2019-04-01T19:48:23.806Z,9.01
2019-04-01T19:51:28.990Z,9.08
2019-04-01T19:54:34.527Z,8.91
2019-04-01T19:57:41.031Z,8.82
2019-04-01T20:00:46.289Z,8.80
2019-04-01T20:03:51.490Z,8.86
2019-04-01T20:06:56.670Z,8.97
2019-04-01T20:10:04.651Z,9.11
2019-04-01T20:13:10.306Z,9.49
2019-04-01T20:16:15.952Z,9.33
2019-04-01T20:19:21.261Z,9.03
2019-04-01T20:22:26.540Z,8.86
2019-04-01T20:25:31.692Z,8.94
2019-04-01T20:28:37.049Z,8.73
2019-04-01T20:31:42.302Z,8.92
2019-04-01T20:34:56.897Z,9.21
2019-04-01T20:37:54.479Z,9.16
2019-04-01T20:40:59.803Z,9.14
2019-04-01T20:44:05.323Z,9.16
2019-04-01T20:47:10.492Z,8.91
2019-04-01T20:50:16.151Z,8.83
2019-04-01T20:53:21.434Z,8.78
2019-04-01T20:56:26.782Z,8.71
2019-04-01T20:59:32.129Z,8.60
2019-04-01T21:02:37.404Z,8.47
2019-04-01T21:05:42.547Z,8.72
2019-04-01T21:08:47.880Z,9.00
2019-04-01T21:11:53.263Z,8.95
2019-04-01T21:15:01.286Z,9.04
2019-04-01T21:18:08.010Z,8.74
2019-04-01T21:21:13.329Z,9.04
2019-04-01T21:24:19.619Z,8.67
2019-04-01T21:27:24.949Z,8.31
2019-04-01T21:30:30.494Z,8.05
2019-04-01T21:33:35.622Z,8.20
2019-04-01T21:36:40.967Z,8.15
2019-04-01T21:39:46.365Z,8.07
2019-04-01T21:42:52.005Z,8.22
2019-04-01T21:45:58.458Z,8.11
2019-04-01T21:49:03.539Z,7.97
2019-04-01T21:52:08.661Z,8.14
2019-04-01T21:55:14.034Z,8.16
2019-04-01T21:58:20.050Z,7.95
2019-04-01T22:01:25.638Z,7.85
2019-04-01T22:04:31.006Z,7.56
2019-04-01T22:07:38.155Z,7.36
2019-04-01T22:10:43.344Z,7.17
2019-04-01T22:13:48.503Z,7.08
2019-04-01T22:16:53.686Z,6.99
2019-04-01T22:19:58.832Z,6.84
2019-04-01T22:23:04.082Z,6.97
2019-04-01T22:26:09.392Z,6.81
2019-04-01T22:29:14.548Z,6.77
2019-04-01T22:32:19.756Z,6.48
2019-04-01T22:35:25.437Z,6.60
2019-04-01T22:38:30.595Z,6.63
2019-04-01T22:41:36.214Z,6.55
2019-04-01T22:44:41.336Z,6.60
2019-04-01T22:47:46.603Z,6.61
2019-04-01T22:50:51.867Z,6.46
2019-04-01T22:53:57.259Z,6.39
2019-04-01T22:57:02.397Z,6.22
2019-04-01T23:00:08.007Z,6.14
2019-04-01T23:03:14.771Z,5.94
2019-04-01T23:06:19.866Z,5.82
2019-04-01T23:09:26.211Z,5.81
2019-04-01T23:12:31.435Z,5.77
2019-04-01T23:15:36.626Z,5.63
2019-04-01T23:18:41.875Z,5.66
2019-04-01T23:21:47.165Z,5.74
2019-04-01T23:24:52.401Z,5.65
2019-04-01T23:27:57.539Z,5.49
2019-04-01T23:31:02.623Z,5.33
2019-04-01T23:34:07.860Z,5.36
2019-04-01T23:37:13.022Z,5.26
2019-04-01T23:40:18.391Z,5.09
2019-04-01T23:43:23.499Z,5.08
2019-04-01T23:46:28.691Z,5.12
2019-04-01T23:49:33.794Z,5.09
2019-04-01T23:52:39.058Z,5.02
2019-04-01T23:55:44.213Z,4.97
2019-04-01T23:58:50.235Z,5.11
